Time;durP1;ratioP1;P1;durP2;ratioP2;P2;SDS_P1;SDS_P2;PMS_P1;PMS_P2;Temp;Humidity;BMP_temperature;BMP_pressure;BME280_temperature;BME280_humidity;BME280_pressure;Samples;Min_cycle;Max_cycle;Signal;HPM_P1;HPM_P2
2021/12/07 00:00:14;;;;;;;19.63;12.57;;;;;;;;;;5026323;28;20602;-86
2021/12/07 00:03:20;;;;;;;21.10;11.57;;;;;;;;;;5015003;28;20606;-86
2021/12/07 00:06:24;;;;;;;21.20;12.23;;;;;;;;;;5015114;28;20646;-86
2021/12/07 00:09:28;;;;;;;20.00;11.63;;;;;;;;;;5026540;28;20555;-86
2021/12/07 00:12:37;;;;;;;21.57;12.27;;;;;;;;;;5031225;28;20967;-87
2021/12/07 00:15:41;;;;;;;17.70;11.53;;;;;;;;;;5018875;28;20909;-87
2021/12/07 00:18:47;;;;;;;21.00;12.33;;;;;;;;;;5016682;28;20923;-87
2021/12/07 00:21:51;;;;;;;17.63;11.23;;;;;;;;;;5016232;28;20932;-87
2021/12/07 00:24:55;;;;;;;19.23;10.63;;;;;;;;;;5015347;28;20543;-87
2021/12/07 00:28:00;;;;;;;17.57;10.97;;;;;;;;;;5014634;28;20630;-87
2021/12/07 00:31:13;;;;;;;18.00;11.20;;;;;;;;;;5016424;28;20551;-87
2021/12/07 00:37:38;;;;;;;18.87;11.90;;;;;;;;;;5026737;28;20630;-87
2021/12/07 00:40:43;;;;;;;23.73;12.87;;;;;;;;;;5016014;28;20551;-87
2021/12/07 00:43:47;;;;;;;25.07;12.90;;;;;;;;;;5028724;28;20539;-87
2021/12/07 00:46:52;;;;;;;22.80;12.93;;;;;;;;;;5015905;28;20626;-86
2021/12/07 00:49:56;;;;;;;21.93;12.57;;;;;;;;;;5027611;28;20551;-87
2021/12/07 00:53:02;;;;;;;21.57;12.43;;;;;;;;;;5026861;28;20658;-87
2021/12/07 00:56:07;;;;;;;21.30;12.27;;;;;;;;;;5026858;28;20590;-87
2021/12/07 00:59:11;;;;;;;21.57;12.20;;;;;;;;;;5023820;28;20562;-87
2021/12/07 01:02:15;;;;;;;22.20;11.63;;;;;;;;;;5023935;28;20601;-86
2021/12/07 01:05:26;;;;;;;18.87;11.53;;;;;;;;;;5034393;28;20609;-87
2021/12/07 01:25:27;;;;;;;12.57;8.30;;;;;;;;;;5034823;28;20543;-86
2021/12/07 01:28:39;;;;;;;12.53;7.80;;;;;;;;;;5034617;28;20550;-86
2021/12/07 01:39:36;;;;;;;12.63;8.13;;;;;;;;;;5007901;28;20611;-87
2021/12/07 02:02:16;;;;;;;8.97;6.03;;;;;;;;;;4975044;28;20567;-86
2021/12/07 02:05:21;;;;;;;8.83;6.37;;;;;;;;;;4982280;28;20586;-86
2021/12/07 02:08:26;;;;;;;7.90;5.60;;;;;;;;;;4975095;28;20557;-87
2021/12/07 02:11:30;;;;;;;9.17;6.00;;;;;;;;;;4974597;28;20558;-86
2021/12/07 02:14:38;;;;;;;8.50;5.67;;;;;;;;;;4974982;28;20652;-86
2021/12/07 02:17:44;;;;;;;12.87;6.00;;;;;;;;;;4974816;28;20613;-87
2021/12/07 02:20:50;;;;;;;10.10;5.70;;;;;;;;;;4982986;28;20592;-87
2021/12/07 02:23:54;;;;;;;9.10;5.90;;;;;;;;;;4964403;28;20597;-87
2021/12/07 02:27:00;;;;;;;9.33;5.83;;;;;;;;;;4986177;28;20629;-87
2021/12/07 02:30:09;;;;;;;9.93;6.00;;;;;;;;;;4975671;28;20554;-87
2021/12/07 02:33:13;;;;;;;10.20;6.47;;;;;;;;;;5000510;28;20648;-86
2021/12/07 02:36:19;;;;;;;7.63;5.53;;;;;;;;;;4984063;28;20616;-86
2021/12/07 02:39:35;;;;;;;7.67;5.93;;;;;;;;;;5017417;28;20592;-86
2021/12/07 02:42:43;;;;;;;9.50;5.80;;;;;;;;;;5004328;28;20553;-87
2021/12/07 02:45:48;;;;;;;8.70;5.73;;;;;;;;;;4975316;28;20607;-87
2021/12/07 02:48:52;;;;;;;10.70;5.77;;;;;;;;;;4975103;28;20558;-87
2021/12/07 02:51:57;;;;;;;8.00;6.00;;;;;;;;;;4979026;28;20545;-87
2021/12/07 02:55:03;;;;;;;10.70;5.83;;;;;;;;;;4997393;28;20631;-87
2021/12/07 02:58:08;;;;;;;10.57;5.07;;;;;;;;;;5014457;28;20631;-87
2021/12/07 03:01:21;;;;;;;7.80;5.10;;;;;;;;;;5007001;28;21158;-86
2021/12/07 03:04:32;;;;;;;7.40;4.60;;;;;;;;;;5017265;28;20552;-86
2021/12/07 03:27:44;;;;;;;6.17;4.57;;;;;;;;;;5021451;28;20627;-86
2021/12/07 03:30:49;;;;;;;6.87;4.23;;;;;;;;;;5021450;28;20544;-86
2021/12/07 03:33:55;;;;;;;7.10;5.43;;;;;;;;;;5035252;28;20599;-87
2021/12/07 03:37:02;;;;;;;9.73;5.73;;;;;;;;;;5012458;28;20623;-87
2021/12/07 03:40:09;;;;;;;8.53;6.07;;;;;;;;;;5018364;28;20540;-87
2021/12/07 03:43:15;;;;;;;10.03;6.30;;;;;;;;;;5017554;28;20540;-87
2021/12/07 03:46:20;;;;;;;9.33;6.60;;;;;;;;;;5006366;28;20619;-86
2021/12/07 03:49:25;;;;;;;9.00;5.87;;;;;;;;;;5016932;28;20621;-86
2021/12/07 03:52:30;;;;;;;8.27;5.87;;;;;;;;;;5028104;28;20603;-86
2021/12/07 03:55:34;;;;;;;10.27;6.90;;;;;;;;;;5016815;28;20571;-86
2021/12/07 03:58:39;;;;;;;9.93;6.53;;;;;;;;;;5006973;28;21077;-86
2021/12/07 04:01:44;;;;;;;10.53;6.27;;;;;;;;;;5016886;28;20555;-86
2021/12/07 04:04:58;;;;;;;9.33;5.97;;;;;;;;;;5006290;28;20556;-85
2021/12/07 04:08:04;;;;;;;8.70;5.60;;;;;;;;;;5005856;28;20619;-86
2021/12/07 04:11:09;;;;;;;8.97;6.27;;;;;;;;;;5007221;28;20536;-86
2021/12/07 04:14:14;;;;;;;8.40;5.93;;;;;;;;;;5018861;28;20604;-85
2021/12/07 04:17:18;;;;;;;11.23;5.87;;;;;;;;;;5018136;28;20634;-86
2021/12/07 04:20:23;;;;;;;8.40;6.20;;;;;;;;;;5007265;28;20603;-86
2021/12/07 04:23:28;;;;;;;7.60;5.50;;;;;;;;;;5008298;28;20548;-85
2021/12/07 04:26:34;;;;;;;8.50;6.17;;;;;;;;;;5020287;28;20631;-85
2021/12/07 04:29:38;;;;;;;9.10;6.37;;;;;;;;;;5020120;28;20543;-85
2021/12/07 04:32:43;;;;;;;8.10;5.73;;;;;;;;;;5010154;28;20536;-86
2021/12/07 04:35:49;;;;;;;7.40;5.70;;;;;;;;;;5031783;28;20545;-85
2021/12/07 04:38:54;;;;;;;7.77;5.57;;;;;;;;;;5019552;28;20532;-85
2021/12/07 04:41:58;;;;;;;9.17;5.10;;;;;;;;;;5019912;28;20547;-85
2021/12/07 04:45:07;;;;;;;9.27;6.10;;;;;;;;;;5018915;28;21076;-85
2021/12/07 04:58:06;;;;;;;7.43;5.47;;;;;;;;;;5054095;22;20676;-86
2021/12/07 05:01:11;;;;;;;8.23;4.93;;;;;;;;;;5013024;28;20576;-86
2021/12/07 05:04:21;;;;;;;6.93;5.23;;;;;;;;;;5001991;28;20593;-84
2021/12/07 05:07:37;;;;;;;7.50;5.30;;;;;;;;;;5011939;28;20596;-85
2021/12/07 05:17:40;;;;;;;7.53;5.10;;;;;;;;;;5008535;28;20600;-84
2021/12/07 05:24:12;;;;;;;7.93;5.43;;;;;;;;;;5014306;28;20580;-85
2021/12/07 05:37:47;;;;;;;8.47;5.53;;;;;;;;;;5022770;28;20540;-86
2021/12/07 05:40:52;;;;;;;6.67;5.20;;;;;;;;;;5011208;28;20552;-85
2021/12/07 05:43:55;;;;;;;7.33;5.43;;;;;;;;;;5015365;28;20539;-85
2021/12/07 05:46:59;;;;;;;5.70;4.60;;;;;;;;;;5011840;28;20540;-85
2021/12/07 05:50:06;;;;;;;6.27;4.63;;;;;;;;;;5017271;28;20548;-85
2021/12/07 05:53:12;;;;;;;6.57;4.90;;;;;;;;;;5008389;28;20540;-86
2021/12/07 05:56:16;;;;;;;6.27;4.90;;;;;;;;;;5009263;28;21086;-86
2021/12/07 05:59:21;;;;;;;6.93;4.90;;;;;;;;;;5008155;28;20623;-86
2021/12/07 06:02:25;;;;;;;5.63;4.70;;;;;;;;;;5020078;28;20536;-86
2021/12/07 06:05:29;;;;;;;6.53;5.37;;;;;;;;;;5026672;28;20540;-86
2021/12/07 06:08:34;;;;;;;7.13;4.57;;;;;;;;;;4999631;28;20635;-86
2021/12/07 06:11:38;;;;;;;7.10;5.53;;;;;;;;;;4999914;28;20541;-86
2021/12/07 06:14:43;;;;;;;7.03;4.90;;;;;;;;;;5000807;28;20591;-86
2021/12/07 06:17:49;;;;;;;8.30;5.03;;;;;;;;;;5011571;28;20623;-85
2021/12/07 06:20:53;;;;;;;8.40;5.20;;;;;;;;;;5012978;28;20544;-85
2021/12/07 06:23:57;;;;;;;6.23;5.07;;;;;;;;;;5001233;28;20543;-85
2021/12/07 06:27:01;;;;;;;5.77;4.40;;;;;;;;;;5004498;28;20547;-86
2021/12/07 06:30:06;;;;;;;6.47;5.13;;;;;;;;;;5004964;28;20535;-86
2021/12/07 06:33:12;;;;;;;6.10;4.70;;;;;;;;;;5004611;28;20544;-86
2021/12/07 06:36:16;;;;;;;6.03;4.53;;;;;;;;;;5004806;28;20608;-85
2021/12/07 06:39:22;;;;;;;6.17;4.47;;;;;;;;;;5026854;28;20635;-83
2021/12/07 06:42:26;;;;;;;5.50;4.33;;;;;;;;;;5019752;28;20623;-86
2021/12/07 06:45:31;;;;;;;7.73;5.70;;;;;;;;;;4986362;28;20572;-85
2021/12/07 06:48:36;;;;;;;6.80;5.57;;;;;;;;;;4996464;28;20965;-85
2021/12/07 06:51:40;;;;;;;6.77;5.90;;;;;;;;;;4995961;28;20537;-86
2021/12/07 06:54:44;;;;;;;6.73;5.20;;;;;;;;;;4996305;28;20592;-85
2021/12/07 06:57:49;;;;;;;5.23;4.57;;;;;;;;;;4995302;28;20636;-85
2021/12/07 07:00:53;;;;;;;6.63;5.30;;;;;;;;;;4985349;28;20540;-86
2021/12/07 07:03:58;;;;;;;5.63;4.97;;;;;;;;;;4996067;28;20560;-85
2021/12/07 07:07:02;;;;;;;7.57;5.03;;;;;;;;;;4997187;28;21068;-86
2021/12/07 07:10:09;;;;;;;5.33;4.17;;;;;;;;;;4985177;28;20544;-86
2021/12/07 07:13:14;;;;;;;4.77;3.87;;;;;;;;;;4984324;28;20596;-85
2021/12/07 07:16:18;;;;;;;5.93;3.93;;;;;;;;;;4995903;28;20588;-85
2021/12/07 07:19:24;;;;;;;6.50;3.73;;;;;;;;;;4995383;28;20624;-85
2021/12/07 07:22:28;;;;;;;4.67;3.87;;;;;;;;;;4984330;28;20533;-85
2021/12/07 07:25:33;;;;;;;5.93;4.60;;;;;;;;;;4995808;28;20537;-85
2021/12/07 07:28:38;;;;;;;5.97;5.37;;;;;;;;;;4984076;28;20620;-85
2021/12/07 07:31:41;;;;;;;5.57;4.93;;;;;;;;;;4994480;28;21069;-85
2021/12/07 07:34:46;;;;;;;7.13;4.70;;;;;;;;;;4994410;28;20652;-85
2021/12/07 07:37:52;;;;;;;4.80;4.30;;;;;;;;;;4995123;28;20627;-85
2021/12/07 07:40:57;;;;;;;7.07;4.63;;;;;;;;;;4995990;28;20548;-85
2021/12/07 07:44:03;;;;;;;8.03;3.93;;;;;;;;;;4984195;28;20600;-86
2021/12/07 07:47:17;;;;;;;6.10;3.90;;;;;;;;;;4985779;28;20537;-84
2021/12/07 07:50:23;;;;;;;15.97;11.07;;;;;;;;;;4995418;28;20545;-85
2021/12/07 07:53:27;;;;;;;9.90;7.23;;;;;;;;;;4984411;28;20607;-85
2021/12/07 07:56:36;;;;;;;19.03;14.87;;;;;;;;;;4984433;28;20639;-85
2021/12/07 07:59:40;;;;;;;4.33;3.40;;;;;;;;;;5006063;28;21231;-85
2021/12/07 08:02:45;;;;;;;5.23;4.00;;;;;;;;;;4983637;28;20604;-84
2021/12/07 08:05:49;;;;;;;5.73;4.80;;;;;;;;;;4983856;28;20541;-85
2021/12/07 08:08:57;;;;;;;5.43;4.93;;;;;;;;;;4995111;28;20628;-85
2021/12/07 08:12:02;;;;;;;3.90;3.50;;;;;;;;;;5019817;28;20604;-87
2021/12/07 08:15:07;;;;;;;8.33;6.13;;;;;;;;;;4984924;28;20644;-85
2021/12/07 08:18:11;;;;;;;8.93;7.73;;;;;;;;;;4995682;28;21196;-85
2021/12/07 08:21:16;;;;;;;4.03;3.57;;;;;;;;;;4995165;28;20544;-85
2021/12/07 08:24:20;;;;;;;7.50;6.83;;;;;;;;;;4983393;28;20536;-84
2021/12/07 08:27:25;;;;;;;4.17;3.60;;;;;;;;;;4995329;28;20549;-85
2021/12/07 08:30:30;;;;;;;11.63;5.77;;;;;;;;;;4983406;28;20537;-84
2021/12/07 08:33:34;;;;;;;12.00;9.03;;;;;;;;;;4994386;28;20545;-85
2021/12/07 08:36:38;;;;;;;5.63;4.07;;;;;;;;;;4993782;28;20942;-85
2021/12/07 08:39:43;;;;;;;6.80;4.13;;;;;;;;;;4993984;28;21195;-85
2021/12/07 08:42:47;;;;;;;3.43;3.03;;;;;;;;;;4992820;28;21155;-85
2021/12/07 08:45:53;;;;;;;4.97;3.00;;;;;;;;;;4993964;28;20537;-85
2021/12/07 08:48:57;;;;;;;9.60;6.57;;;;;;;;;;5003573;28;20631;-84
2021/12/07 08:52:02;;;;;;;8.57;5.73;;;;;;;;;;4981817;28;20608;-84
2021/12/07 09:01:43;;;;;;;4.90;3.57;;;;;;;;;;5003976;28;21109;-85
2021/12/07 09:04:50;;;;;;;7.03;5.03;;;;;;;;;;4982631;28;20549;-86
2021/12/07 09:07:55;;;;;;;9.10;8.03;;;;;;;;;;4980162;28;20636;-86
2021/12/07 09:11:01;;;;;;;5.70;4.33;;;;;;;;;;4991478;28;20608;-87
2021/12/07 09:14:16;;;;;;;5.13;4.43;;;;;;;;;;5002633;28;20541;-87
2021/12/07 09:18:01;;;;;;;7.07;4.60;;;;;;;;;;4995518;28;20628;-88
2021/12/07 09:21:05;;;;;;;27.37;14.20;;;;;;;;;;4980162;28;20549;-88
2021/12/07 09:24:10;;;;;;;9.13;7.70;;;;;;;;;;4991223;28;21117;-87
2021/12/07 09:27:14;;;;;;;5.53;5.00;;;;;;;;;;4980208;28;20537;-87
2021/12/07 09:30:21;;;;;;;6.80;4.50;;;;;;;;;;4991570;28;20545;-87
2021/12/07 09:33:27;;;;;;;7.23;6.53;;;;;;;;;;4991558;28;20954;-87
2021/12/07 09:36:34;;;;;;;7.37;3.30;;;;;;;;;;4981524;28;20644;-85
2021/12/07 09:39:38;;;;;;;4.37;2.27;;;;;;;;;;4981526;28;20970;-84
2021/12/07 09:42:42;;;;;;;4.97;3.73;;;;;;;;;;4992105;28;20553;-85
2021/12/07 09:45:48;;;;;;;3.57;2.97;;;;;;;;;;5004191;28;20545;-85
2021/12/07 09:48:53;;;;;;;2.80;2.17;;;;;;;;;;4992367;28;21184;-85
2021/12/07 09:51:57;;;;;;;3.03;2.67;;;;;;;;;;4981743;28;20549;-85
2021/12/07 09:55:03;;;;;;;3.47;2.13;;;;;;;;;;4991567;28;20537;-85
2021/12/07 09:58:08;;;;;;;3.47;2.03;;;;;;;;;;4991194;28;20631;-84
2021/12/07 10:01:12;;;;;;;3.60;3.30;;;;;;;;;;5006838;28;20540;-84
2021/12/07 10:04:16;;;;;;;3.60;3.27;;;;;;;;;;4996710;28;20548;-84
2021/12/07 10:07:20;;;;;;;6.67;4.00;;;;;;;;;;4996621;28;20878;-84
2021/12/07 10:10:28;;;;;;;4.57;3.30;;;;;;;;;;4985431;28;20549;-85
2021/12/07 10:13:33;;;;;;;4.20;2.17;;;;;;;;;;4995527;28;20553;-84
2021/12/07 10:16:43;;;;;;;5.63;2.80;;;;;;;;;;4995079;28;20652;-85
2021/12/07 10:19:48;;;;;;;4.30;1.87;;;;;;;;;;5006319;28;20636;-85
2021/12/07 10:22:53;;;;;;;2.73;2.10;;;;;;;;;;4983882;28;20541;-86
2021/12/07 10:31:22;;;;;;;5.00;2.10;;;;;;;;;;4976208;28;21004;-89
2021/12/07 11:00:07;;;;;;;2.77;1.90;;;;;;;;;;5037497;23;20682;-75
2021/12/07 11:03:14;;;;;;;2.40;1.80;;;;;;;;;;5006033;28;20597;-74
2021/12/07 11:06:19;;;;;;;5.43;2.57;;;;;;;;;;4983809;28;20542;-73
2021/12/07 11:09:23;;;;;;;5.93;4.17;;;;;;;;;;4983527;28;20542;-73
2021/12/07 11:12:34;;;;;;;5.30;3.00;;;;;;;;;;4995089;28;20624;-73
2021/12/07 11:15:48;;;;;;;7.67;4.70;;;;;;;;;;4983307;28;20206;-74
2021/12/07 11:18:54;;;;;;;2.27;2.07;;;;;;;;;;4961560;28;21114;-74
2021/12/07 11:21:59;;;;;;;6.13;4.07;;;;;;;;;;4995897;28;20629;-74
2021/12/07 11:25:04;;;;;;;4.57;4.17;;;;;;;;;;4996351;28;20593;-75
2021/12/07 11:31:45;;;;;;;14.53;5.03;;;;;;;;;;4994839;28;20648;-76
2021/12/07 11:34:49;;;;;;;4.90;3.20;;;;;;;;;;4994551;28;20194;-76
2021/12/07 11:37:55;;;;;;;5.37;3.57;;;;;;;;;;4984140;28;20178;-76
2021/12/07 11:41:35;;;;;;;4.63;2.97;;;;;;;;;;4984097;28;20656;-77
2021/12/07 11:44:52;;;;;;;7.23;6.20;;;;;;;;;;4946662;28;20595;-77
2021/12/07 11:48:02;;;;;;;5.97;3.03;;;;;;;;;;4985604;28;20194;-77
2021/12/07 11:51:06;;;;;;;5.67;2.30;;;;;;;;;;4972657;28;20609;-76
2021/12/07 11:54:12;;;;;;;6.03;2.97;;;;;;;;;;4965350;28;20189;-77
2021/12/07 11:57:18;;;;;;;3.77;2.43;;;;;;;;;;5001088;28;20205;-77
2021/12/07 12:00:26;;;;;;;8.53;5.80;;;;;;;;;;4982701;28;20585;-77
2021/12/07 12:03:30;;;;;;;7.10;5.93;;;;;;;;;;5001151;28;20562;-77
2021/12/07 12:06:35;;;;;;;3.93;2.83;;;;;;;;;;4987670;28;20190;-77
2021/12/07 12:09:50;;;;;;;6.20;4.10;;;;;;;;;;4991862;28;21104;-77
2021/12/07 12:13:31;;;;;;;4.67;2.83;;;;;;;;;;4983479;28;20225;-77
2021/12/07 12:16:59;;;;;;;5.43;2.80;;;;;;;;;;5008142;28;20201;-77
2021/12/07 12:20:31;;;;;;;2.87;2.20;;;;;;;;;;4985427;28;20194;-78
2021/12/07 12:23:52;;;;;;;3.53;1.97;;;;;;;;;;4987107;28;20190;-78
2021/12/07 12:27:12;;;;;;;7.10;2.00;;;;;;;;;;4986480;28;20581;-78
2021/12/07 12:30:21;;;;;;;3.60;1.87;;;;;;;;;;5003590;28;20934;-76
2021/12/07 12:33:25;;;;;;;3.43;1.90;;;;;;;;;;4984699;28;20219;-76
2021/12/07 12:36:36;;;;;;;4.43;1.93;;;;;;;;;;4978713;28;20620;-76
2021/12/07 12:39:46;;;;;;;3.80;1.70;;;;;;;;;;4991181;28;20589;-76
2021/12/07 12:42:52;;;;;;;3.37;1.97;;;;;;;;;;4984691;28;20672;-76
2021/12/07 12:46:01;;;;;;;5.17;2.30;;;;;;;;;;4986996;28;20631;-70
2021/12/07 12:49:10;;;;;;;3.77;2.27;;;;;;;;;;5003205;28;20182;-70
2021/12/07 12:52:14;;;;;;;2.33;1.60;;;;;;;;;;4995270;28;20648;-70
2021/12/07 12:55:28;;;;;;;3.47;2.63;;;;;;;;;;4990777;28;20186;-70
2021/12/07 12:58:33;;;;;;;3.73;2.00;;;;;;;;;;5001501;28;20205;-70
2021/12/07 13:01:41;;;;;;;3.40;1.70;;;;;;;;;;5010625;28;20221;-70
2021/12/07 13:05:04;;;;;;;3.23;1.50;;;;;;;;;;4994568;28;20178;-70
2021/12/07 13:08:16;;;;;;;3.27;1.43;;;;;;;;;;4998195;28;20639;-70
2021/12/07 13:11:33;;;;;;;2.50;1.67;;;;;;;;;;5007676;28;20213;-70
2021/12/07 13:14:43;;;;;;;4.93;1.80;;;;;;;;;;4997313;28;20197;-70
2021/12/07 13:17:48;;;;;;;4.37;1.90;;;;;;;;;;4996246;28;20222;-70
2021/12/07 13:20:53;;;;;;;3.47;1.80;;;;;;;;;;5007039;28;20531;-70
2021/12/07 13:24:06;;;;;;;6.60;2.20;;;;;;;;;;4981950;28;20508;-70
2021/12/07 13:27:16;;;;;;;3.83;1.67;;;;;;;;;;4993636;28;20195;-71
2021/12/07 13:30:20;;;;;;;5.60;3.80;;;;;;;;;;4994046;28;20183;-70
2021/12/07 13:33:38;;;;;;;6.33;4.80;;;;;;;;;;4985269;28;20189;-70
2021/12/07 13:36:45;;;;;;;8.07;3.97;;;;;;;;;;4993495;28;20210;-70
2021/12/07 13:39:52;;;;;;;4.50;1.83;;;;;;;;;;4996446;28;20548;-70
2021/12/07 13:42:56;;;;;;;9.70;5.83;;;;;;;;;;4994443;28;20213;-70
2021/12/07 13:46:22;;;;;;;7.13;2.97;;;;;;;;;;4996350;28;20646;-70
2021/12/07 13:49:27;;;;;;;4.43;2.80;;;;;;;;;;5001806;28;20190;-70
2021/12/07 13:52:37;;;;;;;5.53;1.80;;;;;;;;;;5012247;28;20700;-70
2021/12/07 13:55:43;;;;;;;6.97;1.90;;;;;;;;;;5011314;28;20284;-70
2021/12/07 13:58:49;;;;;;;3.03;1.60;;;;;;;;;;4993587;28;20206;-70
2021/12/07 14:01:56;;;;;;;6.33;2.00;;;;;;;;;;4981411;28;20225;-70
2021/12/07 14:05:04;;;;;;;8.10;1.73;;;;;;;;;;4986570;28;20189;-71
2021/12/07 14:08:11;;;;;;;8.00;2.30;;;;;;;;;;5012876;28;20201;-70
2021/12/07 14:11:17;;;;;;;2.37;1.40;;;;;;;;;;5011164;28;20217;-70
2021/12/07 14:14:22;;;;;;;3.07;1.47;;;;;;;;;;5006803;28;20189;-70
2021/12/07 14:17:47;;;;;;;8.17;4.60;;;;;;;;;;4989973;28;20209;-70
2021/12/07 14:20:55;;;;;;;3.50;2.23;;;;;;;;;;4986721;28;20650;-70
2021/12/07 14:24:05;;;;;;;7.17;2.40;;;;;;;;;;5013332;28;20197;-70
2021/12/07 14:27:09;;;;;;;8.47;2.20;;;;;;;;;;5013105;28;20182;-70
2021/12/07 14:30:15;;;;;;;3.40;1.90;;;;;;;;;;5012167;28;20654;-70
2021/12/07 14:33:20;;;;;;;4.50;1.77;;;;;;;;;;5012833;28;20186;-70
2021/12/07 14:36:34;;;;;;;2.77;1.30;;;;;;;;;;5012907;28;20177;-70
2021/12/07 14:39:41;;;;;;;3.90;1.30;;;;;;;;;;5013217;28;20178;-70
2021/12/07 14:42:46;;;;;;;4.27;1.53;;;;;;;;;;5000702;28;20217;-70
2021/12/07 14:45:49;;;;;;;4.60;1.50;;;;;;;;;;5008007;28;20197;-70
2021/12/07 14:48:56;;;;;;;3.97;1.67;;;;;;;;;;4986738;28;20181;-71
2021/12/07 14:52:00;;;;;;;3.67;1.70;;;;;;;;;;4993301;28;20209;-71
2021/12/07 14:55:05;;;;;;;4.87;1.63;;;;;;;;;;4995091;28;20548;-71
2021/12/07 14:58:10;;;;;;;4.67;2.27;;;;;;;;;;4992670;28;20221;-71
2021/12/07 15:01:19;;;;;;;4.23;2.57;;;;;;;;;;4985168;28;20209;-71
2021/12/07 15:04:24;;;;;;;13.40;5.10;;;;;;;;;;5008034;28;20197;-71
2021/12/07 15:07:33;;;;;;;8.60;4.20;;;;;;;;;;5007692;28;20186;-71
2021/12/07 15:10:37;;;;;;;7.20;3.10;;;;;;;;;;4988735;28;20906;-72
2021/12/07 15:13:41;;;;;;;5.30;2.73;;;;;;;;;;5000245;28;20580;-72
2021/12/07 15:16:52;;;;;;;5.00;2.87;;;;;;;;;;4991349;28;20597;-72
2021/12/07 15:20:03;;;;;;;3.67;2.00;;;;;;;;;;4993455;28;20193;-71
2021/12/07 15:23:08;;;;;;;3.83;1.70;;;;;;;;;;4996150;28;20190;-71
2021/12/07 15:26:15;;;;;;;3.07;1.70;;;;;;;;;;4998910;28;20225;-72
2021/12/07 15:29:22;;;;;;;4.47;2.00;;;;;;;;;;4997601;28;20197;-71
2021/12/07 15:32:26;;;;;;;5.00;1.90;;;;;;;;;;4994125;28;20649;-71
2021/12/07 15:35:31;;;;;;;3.57;1.97;;;;;;;;;;4992263;28;20178;-72
2021/12/07 15:38:35;;;;;;;2.40;1.53;;;;;;;;;;4997322;28;20636;-71
2021/12/07 15:41:51;;;;;;;5.90;1.70;;;;;;;;;;4980304;28;20962;-71
2021/12/07 15:45:03;;;;;;;5.80;1.60;;;;;;;;;;5001958;28;21452;-71
2021/12/07 15:48:08;;;;;;;4.07;2.17;;;;;;;;;;5004593;28;20597;-72
2021/12/07 15:51:12;;;;;;;4.70;1.97;;;;;;;;;;4998061;28;20647;-72
2021/12/07 15:54:16;;;;;;;4.43;1.53;;;;;;;;;;5002524;28;20616;-72
2021/12/07 15:57:20;;;;;;;5.97;2.00;;;;;;;;;;5005503;28;20644;-71
2021/12/07 16:00:36;;;;;;;4.70;1.50;;;;;;;;;;4950343;28;20586;-71
2021/12/07 16:03:46;;;;;;;3.20;1.57;;;;;;;;;;4969033;28;20593;-71
2021/12/07 16:06:51;;;;;;;2.30;1.63;;;;;;;;;;4972386;28;20598;-71
2021/12/07 16:10:07;;;;;;;2.80;1.40;;;;;;;;;;4960150;28;20606;-71
2021/12/07 16:13:17;;;;;;;2.73;1.30;;;;;;;;;;4960417;28;20570;-71
2021/12/07 16:16:27;;;;;;;3.30;1.50;;;;;;;;;;4976914;28;20622;-71
2021/12/07 16:19:32;;;;;;;1.47;1.13;;;;;;;;;;4979545;28;20629;-72
2021/12/07 16:22:37;;;;;;;3.37;1.40;;;;;;;;;;4973498;28;20653;-72
2021/12/07 16:25:44;;;;;;;2.10;1.30;;;;;;;;;;4968465;28;20907;-72
2021/12/07 16:28:55;;;;;;;2.93;1.50;;;;;;;;;;4972204;28;20594;-71
2021/12/07 16:32:01;;;;;;;3.63;1.43;;;;;;;;;;4972013;28;20638;-72
2021/12/07 16:35:09;;;;;;;4.53;1.47;;;;;;;;;;4971604;28;20980;-71
2021/12/07 16:38:14;;;;;;;2.07;1.40;;;;;;;;;;4961004;28;20618;-70
2021/12/07 16:41:18;;;;;;;3.07;1.37;;;;;;;;;;4979294;28;20664;-70
2021/12/07 16:44:22;;;;;;;1.93;1.30;;;;;;;;;;4982910;28;20581;-71
2021/12/07 16:47:26;;;;;;;3.43;1.53;;;;;;;;;;4978826;28;20896;-71
2021/12/07 16:50:31;;;;;;;1.67;0.97;;;;;;;;;;4979313;28;21212;-71
2021/12/07 16:53:35;;;;;;;2.80;1.20;;;;;;;;;;4980520;28;20597;-71
2021/12/07 16:56:40;;;;;;;7.07;1.70;;;;;;;;;;4967938;28;20589;-72
2021/12/07 16:59:44;;;;;;;7.57;1.53;;;;;;;;;;4997694;28;20641;-72
2021/12/07 17:02:48;;;;;;;4.00;1.60;;;;;;;;;;4979276;28;20678;-72
2021/12/07 17:05:53;;;;;;;3.90;2.13;;;;;;;;;;5010298;28;20627;-71
2021/12/07 17:09:02;;;;;;;2.17;1.50;;;;;;;;;;4984147;28;20585;-71
2021/12/07 17:12:06;;;;;;;7.53;1.60;;;;;;;;;;4990721;28;20617;-71
2021/12/07 17:15:13;;;;;;;3.90;1.50;;;;;;;;;;5004367;28;20588;-71
2021/12/07 17:18:18;;;;;;;5.23;1.67;;;;;;;;;;5004286;28;20632;-71
2021/12/07 17:21:22;;;;;;;3.10;1.77;;;;;;;;;;4990416;28;20657;-71
2021/12/07 17:24:26;;;;;;;3.50;1.70;;;;;;;;;;4996879;28;20600;-71
2021/12/07 17:27:30;;;;;;;3.20;2.03;;;;;;;;;;5009965;28;20620;-71
2021/12/07 17:30:35;;;;;;;3.73;2.10;;;;;;;;;;4990767;28;20604;-71
2021/12/07 17:33:40;;;;;;;3.13;2.10;;;;;;;;;;4998057;28;20568;-71
2021/12/07 17:36:44;;;;;;;3.97;2.40;;;;;;;;;;4987784;28;20616;-71
2021/12/07 17:39:50;;;;;;;6.37;2.10;;;;;;;;;;4992545;28;20601;-71
2021/12/07 17:42:54;;;;;;;3.77;2.30;;;;;;;;;;4997783;28;20624;-71
2021/12/07 17:45:58;;;;;;;5.20;2.67;;;;;;;;;;4997038;28;20568;-71
2021/12/07 17:49:04;;;;;;;7.80;2.80;;;;;;;;;;4988329;28;20589;-71
2021/12/07 17:52:10;;;;;;;6.77;2.80;;;;;;;;;;4990246;28;20633;-71
2021/12/07 17:55:18;;;;;;;5.70;2.77;;;;;;;;;;5008996;28;21223;-71
2021/12/07 17:58:21;;;;;;;4.80;2.50;;;;;;;;;;5009710;28;20667;-72
2021/12/07 18:01:26;;;;;;;5.97;2.70;;;;;;;;;;4990359;28;20658;-72
2021/12/07 18:04:30;;;;;;;6.43;3.10;;;;;;;;;;4978424;28;20569;-71
2021/12/07 18:07:39;;;;;;;8.53;2.83;;;;;;;;;;4990212;28;20558;-71
2021/12/07 18:10:44;;;;;;;4.53;2.90;;;;;;;;;;4998264;28;20632;-72
2021/12/07 18:13:48;;;;;;;5.43;3.33;;;;;;;;;;4980871;28;20621;-72
2021/12/07 18:16:54;;;;;;;3.80;2.90;;;;;;;;;;4991207;28;20911;-71
2021/12/07 18:19:58;;;;;;;6.90;3.20;;;;;;;;;;5005104;28;21203;-72
2021/12/07 18:23:04;;;;;;;8.00;2.80;;;;;;;;;;5013202;28;20648;-72
2021/12/07 18:26:09;;;;;;;5.30;3.13;;;;;;;;;;5007096;28;20592;-72
2021/12/07 18:29:13;;;;;;;3.70;2.50;;;;;;;;;;5011594;28;20592;-72
2021/12/07 18:32:17;;;;;;;6.70;2.97;;;;;;;;;;5011286;28;20656;-72
2021/12/07 18:35:22;;;;;;;4.70;2.80;;;;;;;;;;5000634;28;20604;-72
2021/12/07 18:38:30;;;;;;;7.23;3.23;;;;;;;;;;5013146;28;20608;-71
2021/12/07 18:41:35;;;;;;;4.37;2.53;;;;;;;;;;5006244;28;20680;-72
2021/12/07 18:44:39;;;;;;;5.17;3.23;;;;;;;;;;4993609;28;20597;-71
2021/12/07 18:47:44;;;;;;;5.33;2.53;;;;;;;;;;4993025;28;20574;-71
2021/12/07 18:50:49;;;;;;;5.77;2.73;;;;;;;;;;4977006;28;20600;-71
2021/12/07 18:53:53;;;;;;;9.53;2.67;;;;;;;;;;4981334;28;20565;-71
2021/12/07 18:56:58;;;;;;;5.23;3.10;;;;;;;;;;4970271;28;20891;-71
2021/12/07 19:00:08;;;;;;;6.03;3.23;;;;;;;;;;4992685;28;21189;-71
2021/12/07 19:03:13;;;;;;;4.60;2.70;;;;;;;;;;4997583;28;20592;-71
2021/12/07 19:06:17;;;;;;;7.13;3.00;;;;;;;;;;5012990;28;20569;-76
2021/12/07 19:09:22;;;;;;;5.70;3.50;;;;;;;;;;4979629;28;20565;-76
2021/12/07 19:12:26;;;;;;;6.93;3.37;;;;;;;;;;4970975;28;20648;-76
2021/12/07 19:15:31;;;;;;;10.97;3.90;;;;;;;;;;4981664;28;20600;-77
2021/12/07 19:18:38;;;;;;;11.90;3.80;;;;;;;;;;4970783;28;21508;-76
2021/12/07 19:21:42;;;;;;;8.43;3.80;;;;;;;;;;4973904;28;21261;-76
2021/12/07 19:24:46;;;;;;;8.43;3.90;;;;;;;;;;4978550;28;20612;-76
2021/12/07 19:27:53;;;;;;;7.80;4.03;;;;;;;;;;4989093;28;20631;-76
2021/12/07 19:31:00;;;;;;;7.00;3.80;;;;;;;;;;5006387;28;20596;-77
2021/12/07 19:34:04;;;;;;;8.10;3.77;;;;;;;;;;5001990;28;20565;-77
2021/12/07 19:37:08;;;;;;;5.83;3.73;;;;;;;;;;4960605;28;20562;-77
2021/12/07 19:40:15;;;;;;;7.57;3.50;;;;;;;;;;4995757;28;20649;-77
2021/12/07 19:43:20;;;;;;;12.07;3.90;;;;;;;;;;4991202;28;20601;-78
2021/12/07 19:46:24;;;;;;;6.13;3.47;;;;;;;;;;4982284;28;20604;-77
2021/12/07 19:49:29;;;;;;;6.03;3.53;;;;;;;;;;4975482;28;20596;-78
2021/12/07 19:52:34;;;;;;;9.80;3.17;;;;;;;;;;4982784;28;20648;-78
2021/12/07 19:55:39;;;;;;;8.80;3.73;;;;;;;;;;4970833;28;20565;-75
2021/12/07 19:58:48;;;;;;;4.00;3.27;;;;;;;;;;4991841;28;20656;-75
2021/12/07 20:01:52;;;;;;;5.67;3.30;;;;;;;;;;4970243;28;20625;-77
2021/12/07 20:04:56;;;;;;;6.10;3.53;;;;;;;;;;4979962;28;20600;-76
2021/12/07 20:08:02;;;;;;;9.10;3.50;;;;;;;;;;4980120;28;20982;-75
2021/12/07 20:11:07;;;;;;;7.93;3.90;;;;;;;;;;4976858;28;20653;-77
2021/12/07 20:14:17;;;;;;;5.93;3.70;;;;;;;;;;4989234;28;20969;-77
2021/12/07 20:17:21;;;;;;;8.20;3.37;;;;;;;;;;4980016;28;20565;-78
2021/12/07 20:20:27;;;;;;;6.50;3.83;;;;;;;;;;4990728;28;20659;-77
2021/12/07 20:23:36;;;;;;;11.03;4.17;;;;;;;;;;5001672;28;21030;-77
2021/12/07 20:26:41;;;;;;;5.80;3.73;;;;;;;;;;4993726;28;20568;-77
2021/12/07 20:29:46;;;;;;;7.43;4.17;;;;;;;;;;4985548;28;20589;-77
2021/12/07 20:32:50;;;;;;;12.87;3.60;;;;;;;;;;4999227;28;20652;-76
2021/12/07 20:35:55;;;;;;;4.97;3.47;;;;;;;;;;4976402;28;20587;-77
2021/12/07 20:38:59;;;;;;;6.40;3.60;;;;;;;;;;4998991;28;21164;-76
2021/12/07 20:42:04;;;;;;;9.57;2.97;;;;;;;;;;4969407;28;20987;-77
2021/12/07 20:45:09;;;;;;;6.70;3.50;;;;;;;;;;4979691;28;20963;-78
2021/12/07 20:48:15;;;;;;;4.23;3.33;;;;;;;;;;4979720;28;20570;-76
2021/12/07 20:51:23;;;;;;;4.67;3.20;;;;;;;;;;4990795;28;20651;-76
2021/12/07 20:54:31;;;;;;;7.77;2.93;;;;;;;;;;4979605;28;20562;-77